createdAt,value
2023-02-19T00:01:31.329Z,3.25
2023-02-19T00:04:07.407Z,3.55
2023-02-19T00:06:40.927Z,2.60
2023-02-19T00:09:15.320Z,2.72
2023-02-19T00:11:48.736Z,2.58
2023-02-19T00:14:21.975Z,1.42
2023-02-19T00:16:54.881Z,2.30
2023-02-19T00:19:28.447Z,2.08
2023-02-19T00:22:01.092Z,1.67
2023-02-19T00:24:33.468Z,2.53
2023-02-19T00:27:06.101Z,2.65
2023-02-19T00:29:38.536Z,2.28
2023-02-19T00:32:11.202Z,1.33
2023-02-19T00:34:52.581Z,2.75
2023-02-19T00:37:25.198Z,2.35
2023-02-19T00:39:57.547Z,2.08
2023-02-19T00:42:30.203Z,2.55
2023-02-19T00:45:02.586Z,2.92
2023-02-19T00:47:35.288Z,2.13
2023-02-19T00:50:07.776Z,2.78
2023-02-19T00:52:40.483Z,2.33
2023-02-19T00:55:12.897Z,3.00
2023-02-19T00:57:45.541Z,2.33
2023-02-19T01:00:18.036Z,2.28
2023-02-19T01:02:50.772Z,1.73
2023-02-19T01:05:23.217Z,1.55
2023-02-19T01:07:56.084Z,2.53
2023-02-19T01:10:28.492Z,2.78
2023-02-19T01:13:01.110Z,2.55
2023-02-19T01:15:34.368Z,2.63
2023-02-19T01:18:07.057Z,1.80
2023-02-19T01:20:41.716Z,3.00
2023-02-19T01:23:14.573Z,1.88
2023-02-19T01:25:46.965Z,1.70
2023-02-19T01:28:19.606Z,2.35
2023-02-19T01:30:51.954Z,1.85
2023-02-19T01:33:24.538Z,2.33
2023-02-19T01:35:56.911Z,1.63
2023-02-19T01:38:29.578Z,2.03
2023-02-19T01:41:05.124Z,2.50
2023-02-19T01:44:01.255Z,1.75
2023-02-19T01:46:39.275Z,2.90
2023-02-19T01:49:23.927Z,1.50
2023-02-19T01:52:16.203Z,1.88
2023-02-19T01:54:50.046Z,3.00
2023-02-19T01:57:26.879Z,1.10
2023-02-19T02:00:06.318Z,1.90
2023-02-19T02:02:40.957Z,2.22
2023-02-19T02:05:58.670Z,2.50
2023-02-19T02:08:51.433Z,2.00
2023-02-19T02:11:24.537Z,2.50
2023-02-19T02:13:58.343Z,2.33
2023-02-19T02:16:54.519Z,1.58
2023-02-19T02:20:01.363Z,2.45
2023-02-19T02:23:10.974Z,1.80
2023-02-19T02:26:07.748Z,1.85
2023-02-19T02:29:08.497Z,2.42
2023-02-19T02:34:25.340Z,2.17
2023-02-19T02:36:58.384Z,1.50
2023-02-19T02:39:33.979Z,1.35
2023-02-19T02:42:26.733Z,1.77
2023-02-19T02:45:51.151Z,1.38
2023-02-19T02:48:40.224Z,1.98
2023-02-19T02:51:18.624Z,1.63
2023-02-19T02:54:15.549Z,2.30
2023-02-19T02:56:50.020Z,1.65
2023-02-19T02:59:25.847Z,1.63
2023-02-19T03:02:11.506Z,2.10
2023-02-19T03:05:14.195Z,2.63
2023-02-19T03:07:58.446Z,2.55
2023-02-19T03:10:42.675Z,1.63
2023-02-19T03:13:56.156Z,1.92
2023-02-19T03:16:52.492Z,2.40
2023-02-19T03:19:27.510Z,2.17
2023-02-19T03:22:11.705Z,1.88
2023-02-19T03:25:17.385Z,2.63
2023-02-19T03:27:50.964Z,2.25
2023-02-19T03:30:29.101Z,2.10
2023-02-19T03:33:16.949Z,2.28
2023-02-19T03:36:07.016Z,2.83
2023-02-19T03:38:53.711Z,1.90
2023-02-19T03:41:39.699Z,2.08
2023-02-19T03:44:26.799Z,2.17
2023-02-19T03:47:25.134Z,2.25
2023-02-19T03:50:00.371Z,2.28
2023-02-19T03:52:55.484Z,2.58
2023-02-19T03:55:52.185Z,2.13
2023-02-19T03:58:28.305Z,2.58
2023-02-19T04:01:27.582Z,2.47
2023-02-19T04:04:09.198Z,2.50
2023-02-19T04:06:44.464Z,2.60
2023-02-19T04:09:18.290Z,2.72
2023-02-19T04:11:52.077Z,2.58
2023-02-19T04:14:35.510Z,2.67
2023-02-19T04:17:34.374Z,3.00
2023-02-19T04:20:10.355Z,2.38
2023-02-19T04:22:43.359Z,3.25
2023-02-19T04:25:16.051Z,1.88
2023-02-19T04:27:48.659Z,2.90
2023-02-19T04:30:22.013Z,2.30
2023-02-19T04:32:54.438Z,3.25
2023-02-19T04:35:27.079Z,2.33
2023-02-19T04:37:59.447Z,2.85
2023-02-19T04:40:32.091Z,3.10
2023-02-19T04:43:04.434Z,3.38
2023-02-19T04:45:40.097Z,3.10
2023-02-19T04:48:12.460Z,2.55
2023-02-19T04:50:45.180Z,1.83
2023-02-19T04:53:17.531Z,3.05
2023-02-19T04:55:53.226Z,3.10
2023-02-19T04:58:25.650Z,3.60
2023-02-19T05:00:58.377Z,3.67
2023-02-19T05:03:31.372Z,2.80
2023-02-19T05:06:05.958Z,2.95
2023-02-19T05:08:38.695Z,3.15
2023-02-19T05:11:12.681Z,3.22
2023-02-19T05:13:45.353Z,2.70
2023-02-19T05:16:18.659Z,3.33
2023-02-19T05:18:51.056Z,1.42
2023-02-19T05:21:23.738Z,3.13
2023-02-19T05:23:56.067Z,3.38
2023-02-19T05:26:29.287Z,3.42
2023-02-19T05:29:01.860Z,2.08
2023-02-19T05:31:34.703Z,3.28
2023-02-19T05:34:07.309Z,2.83
2023-02-19T05:36:40.038Z,2.58
2023-02-19T05:39:12.747Z,3.13
2023-02-19T05:41:45.393Z,2.90
2023-02-19T05:44:17.748Z,2.53
2023-02-19T05:46:50.682Z,2.47
2023-02-19T05:49:23.037Z,3.28
2023-02-19T05:51:55.698Z,3.60
2023-02-19T05:54:31.992Z,1.95
2023-02-19T05:57:04.614Z,1.95
2023-02-19T05:59:36.986Z,2.67
2023-02-19T06:02:10.103Z,2.42
2023-02-19T06:04:42.746Z,3.22
2023-02-19T06:07:15.382Z,3.63
2023-02-19T06:09:50.785Z,3.17
2023-02-19T06:12:23.422Z,2.90
2023-02-19T06:14:55.773Z,4.57
2023-02-19T06:17:28.414Z,3.40
2023-02-19T06:20:01.684Z,3.85
2023-02-19T06:22:34.350Z,2.30
2023-02-19T06:25:07.984Z,3.92
2023-02-19T06:27:40.613Z,1.98
2023-02-19T06:30:13.292Z,3.38
2023-02-19T06:32:45.949Z,4.65
2023-02-19T06:35:18.295Z,2.95
2023-02-19T06:37:50.984Z,2.97
2023-02-19T06:40:23.306Z,3.00
2023-02-19T06:42:55.947Z,3.25
2023-02-19T06:45:28.268Z,4.07
2023-02-19T06:48:00.924Z,3.83
2023-02-19T06:50:33.297Z,3.35
2023-02-19T06:53:06.075Z,4.05
2023-02-19T06:55:40.425Z,3.47
2023-02-19T06:58:13.708Z,4.03
2023-02-19T07:00:46.060Z,2.83
2023-02-19T07:03:18.817Z,2.67
2023-02-19T07:05:51.147Z,2.40
2023-02-19T07:08:24.059Z,3.40
2023-02-19T07:10:58.398Z,1.88
2023-02-19T07:13:31.263Z,3.55
2023-02-19T07:16:07.996Z,2.95
2023-02-19T07:18:40.976Z,2.42
2023-02-19T07:21:16.102Z,2.33
2023-02-19T07:23:48.738Z,2.75
2023-02-19T07:26:22.010Z,2.97
2023-02-19T07:28:56.731Z,2.88
2023-02-19T07:31:29.238Z,2.40
2023-02-19T07:34:01.909Z,3.20
2023-02-19T07:36:34.294Z,2.30
2023-02-19T07:39:09.197Z,3.25
2023-02-19T07:41:42.421Z,2.90
2023-02-19T07:44:16.756Z,3.70
2023-02-19T07:46:49.171Z,3.28
2023-02-19T07:49:21.806Z,3.35
2023-02-19T07:51:54.175Z,3.42
2023-02-19T07:54:26.870Z,3.10
2023-02-19T07:56:59.778Z,2.55
2023-02-19T07:59:32.379Z,2.13
2023-02-19T08:02:23.503Z,2.92
2023-02-19T08:04:56.143Z,2.67
2023-02-19T08:07:33.276Z,3.78
2023-02-19T08:10:25.069Z,2.38
2023-02-19T08:13:18.105Z,3.70
2023-02-19T08:16:20.090Z,2.45
2023-02-19T08:18:54.397Z,3.42
2023-02-19T08:21:27.306Z,2.17
2023-02-19T08:23:59.787Z,2.00
2023-02-19T08:26:33.258Z,2.53
2023-02-19T08:29:06.430Z,2.47
2023-02-19T08:31:39.430Z,3.80
2023-02-19T08:34:11.958Z,2.90
2023-02-19T08:36:44.586Z,2.97
2023-02-19T08:39:18.386Z,2.80
2023-02-19T08:41:52.137Z,2.83
2023-02-19T08:44:24.482Z,2.67
2023-02-19T08:47:00.155Z,2.75
2023-02-19T08:49:32.585Z,3.00
2023-02-19T08:52:05.221Z,3.25
2023-02-19T08:54:37.598Z,2.78
2023-02-19T08:57:10.209Z,2.45
2023-02-19T08:59:42.556Z,3.15
2023-02-19T09:02:15.495Z,3.28
2023-02-19T09:04:48.633Z,3.50
2023-02-19T09:07:21.927Z,2.70
2023-02-19T09:09:54.675Z,2.25
2023-02-19T09:12:29.355Z,2.15
2023-02-19T09:15:01.771Z,1.80
2023-02-19T09:17:34.950Z,1.80
2023-02-19T09:20:07.875Z,1.50
2023-02-19T09:22:40.572Z,2.20
2023-02-19T09:25:12.976Z,1.17
2023-02-19T09:27:45.887Z,2.15
2023-02-19T09:30:18.389Z,1.40
2023-02-19T09:32:51.203Z,2.75
2023-02-19T09:35:23.756Z,1.38
2023-02-19T09:38:00.269Z,1.70
2023-02-19T09:40:32.980Z,2.10
2023-02-19T09:43:13.676Z,2.78
2023-02-19T09:48:18.913Z,2.58
2023-02-19T09:50:51.500Z,1.48
2023-02-19T09:53:28.230Z,2.10
2023-02-19T09:56:01.454Z,1.23
2023-02-19T09:58:40.984Z,1.95
2023-02-19T10:01:13.926Z,1.42
2023-02-19T10:03:48.548Z,1.23
2023-02-19T10:06:24.107Z,1.65
2023-02-19T10:09:13.546Z,1.42
2023-02-19T10:11:48.117Z,1.63
2023-02-19T10:14:35.663Z,1.42
2023-02-19T10:17:21.778Z,1.90
2023-02-19T10:19:54.560Z,1.25
2023-02-19T10:22:27.125Z,2.25
2023-02-19T10:25:00.227Z,1.95
2023-02-19T10:27:32.725Z,1.15
2023-02-19T10:30:07.347Z,1.80
2023-02-19T10:33:00.647Z,1.42
2023-02-19T10:35:37.933Z,1.23
2023-02-19T10:38:17.366Z,1.40
2023-02-19T10:40:57.394Z,1.75
2023-02-19T10:43:36.999Z,1.35
2023-02-19T10:46:29.064Z,1.92
2023-02-19T10:49:06.381Z,1.50
2023-02-19T10:51:41.227Z,1.48
2023-02-19T10:54:31.986Z,1.88
2023-02-19T10:57:16.791Z,1.60
2023-02-19T10:59:57.667Z,2.03
2023-02-19T11:02:31.775Z,1.10
2023-02-19T11:05:07.323Z,1.23
2023-02-19T11:08:04.332Z,2.10
2023-02-19T11:10:42.321Z,1.42
2023-02-19T11:13:20.789Z,0.88
2023-02-19T11:15:55.133Z,0.95
2023-02-19T11:18:37.929Z,2.08
2023-02-19T11:21:28.384Z,1.13
2023-02-19T11:24:03.852Z,1.63
2023-02-19T11:26:38.169Z,1.40
2023-02-19T11:29:20.059Z,0.57
2023-02-19T11:31:52.507Z,1.15
2023-02-19T11:34:29.901Z,1.20
2023-02-19T11:37:14.171Z,1.25
2023-02-19T11:39:49.883Z,1.10
2023-02-19T11:42:29.582Z,1.55
2023-02-19T11:45:13.289Z,0.63
2023-02-19T11:47:57.634Z,2.10
2023-02-19T11:50:54.668Z,1.55
2023-02-19T11:53:28.460Z,0.93
2023-02-19T11:56:10.292Z,1.23
2023-02-19T11:59:27.297Z,1.20
2023-02-19T12:02:26.895Z,0.90
2023-02-19T12:04:59.260Z,1.30
2023-02-19T12:07:53.159Z,0.85
2023-02-19T12:10:46.519Z,1.13
2023-02-19T12:13:47.042Z,1.20
2023-02-19T12:16:38.334Z,1.55
2023-02-19T12:19:28.154Z,0.70
2023-02-19T12:22:20.770Z,0.30
2023-02-19T12:25:27.685Z,0.90
2023-02-19T12:28:12.322Z,0.95
2023-02-19T12:31:07.007Z,0.95
2023-02-19T12:34:15.356Z,0.70
2023-02-19T12:37:14.013Z,0.52
2023-02-19T12:40:18.458Z,0.52
2023-02-19T12:43:11.856Z,1.13
2023-02-19T12:45:53.374Z,1.55
2023-02-19T12:48:53.520Z,1.17
2023-02-19T12:51:37.973Z,0.90
2023-02-19T12:54:14.095Z,0.88
2023-02-19T12:57:06.548Z,0.77
2023-02-19T12:59:50.456Z,1.20
2023-02-19T13:02:30.709Z,0.90
2023-02-19T13:05:17.955Z,0.60
2023-02-19T13:08:04.078Z,0.35
2023-02-19T13:10:48.589Z,0.50
2023-02-19T13:13:31.917Z,0.75
2023-02-19T13:16:19.041Z,0.82
2023-02-19T13:18:58.141Z,1.17
2023-02-19T13:21:56.036Z,1.20
2023-02-19T13:24:35.294Z,0.98
2023-02-19T13:27:41.746Z,0.75
2023-02-19T13:30:35.896Z,0.82
2023-02-19T13:33:52.118Z,0.68
2023-02-19T13:36:27.773Z,1.00
2023-02-19T13:39:00.754Z,0.77
2023-02-19T13:41:33.129Z,0.52
2023-02-19T13:44:12.484Z,0.75
2023-02-19T13:46:47.625Z,0.80
2023-02-19T13:49:33.885Z,0.65
2023-02-19T13:52:29.488Z,0.70
2023-02-19T13:55:41.340Z,0.57
2023-02-19T13:58:32.552Z,1.13
2023-02-19T14:01:13.777Z,0.98
2023-02-19T14:03:50.777Z,0.65
2023-02-19T14:06:23.453Z,0.82
2023-02-19T14:08:58.155Z,1.35
2023-02-19T14:11:43.103Z,0.73
2023-02-19T14:14:35.354Z,1.02
2023-02-19T14:17:17.646Z,1.30
2023-02-19T14:19:51.953Z,0.68
2023-02-19T14:22:46.329Z,0.57
2023-02-19T14:25:28.471Z,0.50
2023-02-19T14:28:10.263Z,1.17
2023-02-19T14:31:00.962Z,0.88
2023-02-19T14:33:36.219Z,1.05
2023-02-19T14:36:23.891Z,0.80
2023-02-19T14:39:33.136Z,0.80
2023-02-19T14:42:13.919Z,0.52
2023-02-19T14:44:57.251Z,0.70
2023-02-19T14:47:34.525Z,0.88
2023-02-19T14:50:35.041Z,0.50
2023-02-19T14:53:08.623Z,0.68
2023-02-19T14:55:42.912Z,0.73
2023-02-19T14:58:33.377Z,0.85
2023-02-19T15:01:09.474Z,0.43
2023-02-19T15:03:42.075Z,0.75
2023-02-19T15:06:19.467Z,0.40
2023-02-19T15:08:57.668Z,0.90
2023-02-19T15:11:32.475Z,0.57
2023-02-19T15:14:08.966Z,0.52
2023-02-19T15:16:41.946Z,0.93
2023-02-19T15:19:17.142Z,1.25
2023-02-19T15:21:50.281Z,0.82
2023-02-19T15:24:23.016Z,0.90
2023-02-19T15:26:56.413Z,0.70
2023-02-19T15:29:30.136Z,0.70
2023-02-19T15:32:14.536Z,1.00
2023-02-19T15:35:01.443Z,0.63
2023-02-19T15:37:36.097Z,0.60
2023-02-19T15:40:09.271Z,0.80
2023-02-19T15:42:45.943Z,1.08
2023-02-19T15:45:25.888Z,0.50
2023-02-19T15:48:04.766Z,0.73
2023-02-19T15:50:44.079Z,0.60
2023-02-19T15:53:24.409Z,0.80
2023-02-19T15:56:05.933Z,0.32
2023-02-19T15:59:02.960Z,0.40
2023-02-19T16:01:39.460Z,0.47
2023-02-19T16:04:16.656Z,0.82
2023-02-19T16:06:58.188Z,1.25
2023-02-19T16:09:37.578Z,0.60
2023-02-19T16:12:21.584Z,0.73
2023-02-19T16:14:54.317Z,0.57
2023-02-19T16:17:28.219Z,0.65
2023-02-19T16:20:02.286Z,0.65
2023-02-19T16:22:41.940Z,0.85
2023-02-19T16:25:42.014Z,0.70
2023-02-19T16:28:24.171Z,0.77
2023-02-19T16:31:06.474Z,0.50
2023-02-19T16:33:49.870Z,0.65
2023-02-19T16:36:41.697Z,0.60
2023-02-19T16:39:18.783Z,1.58
2023-02-19T16:41:51.402Z,0.80
2023-02-19T16:44:32.738Z,1.88
2023-02-19T16:47:25.179Z,1.75
2023-02-19T16:50:00.532Z,0.68
2023-02-19T16:52:33.549Z,1.00
2023-02-19T16:55:13.030Z,0.70
2023-02-19T16:57:45.777Z,0.50
2023-02-19T17:00:21.054Z,0.90
2023-02-19T17:02:58.110Z,0.88
2023-02-19T17:05:32.350Z,0.57
2023-02-19T17:08:22.118Z,1.42
2023-02-19T17:10:56.148Z,1.08
2023-02-19T17:13:29.783Z,0.63
2023-02-19T17:16:02.439Z,1.23
2023-02-19T17:18:35.567Z,0.82
2023-02-19T17:21:21.509Z,0.70
2023-02-19T17:23:55.802Z,0.57
2023-02-19T17:26:30.358Z,1.00
2023-02-19T17:29:05.924Z,0.68
2023-02-19T17:31:38.321Z,0.80
2023-02-19T17:34:11.601Z,1.40
2023-02-19T17:36:45.524Z,1.60
2023-02-19T17:39:18.325Z,1.60
2023-02-19T17:41:51.264Z,1.30
2023-02-19T17:44:23.941Z,1.33
2023-02-19T17:46:56.315Z,1.65
2023-02-19T17:49:28.995Z,0.80
2023-02-19T17:52:01.331Z,1.05
2023-02-19T17:54:34.393Z,1.13
2023-02-19T17:57:06.798Z,1.17
2023-02-19T17:59:39.618Z,1.30
2023-02-19T18:02:12.003Z,1.05
2023-02-19T18:04:44.670Z,1.08
2023-02-19T18:07:17.147Z,1.10
2023-02-19T18:09:50.345Z,2.42
2023-02-19T18:12:22.780Z,1.17
2023-02-19T18:14:56.720Z,1.52
2023-02-19T18:17:29.094Z,0.95
2023-02-19T18:20:04.440Z,1.15
2023-02-19T18:22:39.791Z,0.80
2023-02-19T18:25:12.670Z,1.60
2023-02-19T18:27:45.556Z,1.20
2023-02-19T18:30:20.245Z,2.47
2023-02-19T18:32:52.729Z,2.13
2023-02-19T18:35:25.443Z,2.10
2023-02-19T18:37:57.950Z,2.15
2023-02-19T18:40:30.646Z,1.95
2023-02-19T18:43:03.072Z,1.48
2023-02-19T18:45:37.268Z,1.92
2023-02-19T18:48:09.733Z,1.85
2023-02-19T18:50:42.445Z,1.98
2023-02-19T18:53:14.994Z,1.40
2023-02-19T18:58:37.684Z,2.05
2023-02-19T19:01:13.411Z,1.50
2023-02-19T19:04:28.596Z,2.72
2023-02-19T19:06:59.098Z,2.58
2023-02-19T19:09:32.091Z,2.50
2023-02-19T19:12:05.264Z,1.92
2023-02-19T19:14:42.804Z,2.05
2023-02-19T19:17:15.819Z,2.45
2023-02-19T19:19:48.385Z,1.92
2023-02-19T19:22:22.888Z,2.88
2023-02-19T19:24:55.327Z,2.50
2023-02-19T19:27:28.067Z,2.35
2023-02-19T19:30:00.719Z,2.08
2023-02-19T19:32:33.517Z,1.33
2023-02-19T19:35:06.065Z,2.30
2023-02-19T19:37:38.804Z,3.17
2023-02-19T19:40:11.794Z,2.78
2023-02-19T19:42:44.800Z,2.17
2023-02-19T19:45:17.820Z,1.80
2023-02-19T19:47:50.525Z,2.47
2023-02-19T19:50:23.045Z,3.72
2023-02-19T19:52:55.711Z,2.15
2023-02-19T19:55:28.283Z,2.35
2023-02-19T19:58:01.072Z,1.73
2023-02-19T20:00:33.807Z,2.28
2023-02-19T20:03:07.098Z,1.90
2023-02-19T20:05:39.837Z,1.65
2023-02-19T20:08:13.607Z,1.42
2023-02-19T20:10:46.523Z,1.80
2023-02-19T20:13:24.226Z,1.20
2023-02-19T20:15:56.656Z,3.08
2023-02-19T20:18:30.496Z,2.15
2023-02-19T20:21:03.727Z,0.85
2023-02-19T20:23:42.326Z,1.65
2023-02-19T20:26:25.758Z,1.00
2023-02-19T20:28:58.792Z,1.38
2023-02-19T20:31:31.607Z,1.48
2023-02-19T20:34:04.745Z,1.92
2023-02-19T20:36:43.374Z,1.42
2023-02-19T20:39:18.340Z,1.20
2023-02-19T20:41:52.119Z,1.60
2023-02-19T20:44:26.525Z,1.98
2023-02-19T20:46:59.927Z,1.60
2023-02-19T20:49:34.256Z,1.40
2023-02-19T20:52:07.811Z,1.10
2023-02-19T20:54:42.429Z,1.70
2023-02-19T20:57:15.089Z,1.25
2023-02-19T20:59:47.902Z,2.60
2023-02-19T21:02:24.647Z,1.60
2023-02-19T21:04:57.813Z,1.38
2023-02-19T21:07:30.848Z,1.40
2023-02-19T21:10:03.551Z,2.83
2023-02-19T21:12:38.502Z,1.08
2023-02-19T21:15:11.184Z,0.77
2023-02-19T21:17:45.893Z,1.85
2023-02-19T21:20:18.667Z,1.30
2023-02-19T21:22:51.064Z,1.67
2023-02-19T21:25:23.740Z,2.17
2023-02-19T21:27:56.080Z,1.45
2023-02-19T21:30:29.066Z,1.35
2023-02-19T21:33:01.841Z,1.33
2023-02-19T21:35:34.570Z,1.80
2023-02-19T21:38:07.041Z,1.48
2023-02-19T21:40:39.767Z,1.50
2023-02-19T21:43:12.842Z,1.75
2023-02-19T21:45:45.480Z,1.55
2023-02-19T21:48:17.873Z,1.42
2023-02-19T21:50:50.640Z,1.50
2023-02-19T21:53:25.857Z,1.50
2023-02-19T21:55:59.129Z,1.92
2023-02-19T21:58:31.598Z,1.95
2023-02-19T22:01:04.641Z,0.90
2023-02-19T22:03:37.107Z,1.65
2023-02-19T22:06:10.276Z,1.42
2023-02-19T22:08:43.574Z,1.27
2023-02-19T22:11:16.282Z,1.75
2023-02-19T22:13:48.985Z,2.17
2023-02-19T22:16:21.957Z,1.92
2023-02-19T22:18:57.501Z,1.20
2023-02-19T22:21:32.562Z,1.50
2023-02-19T22:24:05.371Z,1.70
2023-02-19T22:26:38.066Z,1.25
2023-02-19T22:29:12.587Z,1.27
2023-02-19T22:31:45.480Z,1.10
2023-02-19T22:34:18.093Z,1.90
2023-02-19T22:36:50.795Z,1.08
2023-02-19T22:39:26.346Z,1.45
2023-02-19T22:41:59.122Z,1.75
2023-02-19T22:44:31.553Z,1.13
2023-02-19T22:47:04.344Z,1.25
2023-02-19T22:49:43.863Z,1.30
2023-02-19T22:52:16.683Z,1.08
2023-02-19T22:54:49.799Z,1.30
2023-02-19T22:57:22.681Z,1.40
2023-02-19T22:59:55.042Z,0.77
2023-02-19T23:02:27.653Z,0.63
2023-02-19T23:05:00.023Z,2.42
2023-02-19T23:07:32.643Z,1.75
2023-02-19T23:10:05.463Z,1.70
2023-02-19T23:12:38.896Z,1.55
2023-02-19T23:15:11.793Z,0.77
2023-02-19T23:17:44.478Z,0.82
2023-02-19T23:20:16.902Z,1.00
2023-02-19T23:22:49.521Z,1.02
2023-02-19T23:25:21.930Z,1.85
2023-02-19T23:27:54.614Z,1.38
2023-02-19T23:30:29.209Z,1.10
2023-02-19T23:33:02.255Z,1.17
2023-02-19T23:35:34.700Z,1.25
2023-02-19T23:38:07.500Z,1.63
2023-02-19T23:40:40.143Z,0.75
2023-02-19T23:43:12.802Z,0.80
2023-02-19T23:45:45.215Z,1.52
2023-02-19T23:48:19.391Z,1.88
2023-02-19T23:50:51.806Z,1.55
2023-02-19T23:53:24.715Z,1.40
2023-02-19T23:55:57.288Z,1.52
2023-02-19T23:58:29.963Z,1.42
